Mudanjiang, China
Current Conditions -  °F | °C
As of 7:00 PM on Monday 20 Oct 2014 (Local Time) from UHWW Reporting Station
Broken Clouds Broken Clouds  
Wind Chill: 52°   Ceiling: 10000
Heat Index: 52°   Visibility: 6mi
Dew Point: 28°   Wind: 4mph
Humidity: 41%   Direction: 310°NW
Pressure: 30.06"   Gusts: NA
Location:  44.58°N, 129.6°E
Report Text: UHWW 201100Z 31002MPS 9999 SCT033 BKN100 11/M02 Q1018 NOSIG RMKQFE763/1017 25CLRD70
Loading
Personal Weather Stations






























Interactive Weather Map
Tropical Storm Tracking
New forecast layout! Learn more

10-Day Weather Forecast

Advertisements
Track Severe Weather on mobile